Terminal Aerodrome Forecast
Issued by NWS Rapid City, SD

Home | Current Version | Previous Version | Graphics & Text | Print | Product List | Glossary Off
Versions: 1 2 3 4 5 6 7 8 9 10 11 12 13 14 15 16 17

000
FTUS43 KUNR 201720
TAFRAP
TAF
KRAP 201720Z 2018/2118 33008KT P6SM OVC040
     FM202200 35010KT 2SM -SN OVC015
     FM210500 34012KT 1SM -SN OVC008=

USA.gov is the U.S. government's official web portal to all federal, state and local government web resources and services.